sensor_id;sensor_type;location;lat;lon;timestamp;temperature;humidity
12632;DHT22;6381;45.748;12.106;2023-07-30T00:01:51;24.80;99.90
12632;DHT22;6381;45.748;12.106;2023-07-30T00:04:25;25.10;99.90
12632;DHT22;6381;45.748;12.106;2023-07-30T00:07:01;25.10;99.90
12632;DHT22;6381;45.748;12.106;2023-07-30T00:09:36;24.40;99.90
12632;DHT22;6381;45.748;12.106;2023-07-30T00:12:13;24.80;99.90
12632;DHT22;6381;45.748;12.106;2023-07-30T00:14:50;24.80;99.90
12632;DHT22;6381;45.748;12.106;2023-07-30T00:17:27;24.70;99.90
12632;DHT22;6381;45.748;12.106;2023-07-30T00:20:04;24.80;99.90
12632;DHT22;6381;45.748;12.106;2023-07-30T00:22:39;24.60;99.90
12632;DHT22;6381;45.748;12.106;2023-07-30T00:25:15;24.80;99.90
12632;DHT22;6381;45.748;12.106;2023-07-30T00:28:15;24.90;99.90
12632;DHT22;6381;45.748;12.106;2023-07-30T00:31:00;24.90;99.90
12632;DHT22;6381;45.748;12.106;2023-07-30T00:33:34;24.90;99.90
12632;DHT22;6381;45.748;12.106;2023-07-30T00:36:12;24.80;99.90
12632;DHT22;6381;45.748;12.106;2023-07-30T00:38:48;24.80;99.90
12632;DHT22;6381;45.748;12.106;2023-07-30T00:41:26;24.70;99.90
12632;DHT22;6381;45.748;12.106;2023-07-30T00:44:02;24.70;99.90
12632;DHT22;6381;45.748;12.106;2023-07-30T00:46:40;24.70;99.90
12632;DHT22;6381;45.748;12.106;2023-07-30T00:49:14;24.60;99.90
12632;DHT22;6381;45.748;12.106;2023-07-30T00:51:51;24.80;99.90
12632;DHT22;6381;45.748;12.106;2023-07-30T00:54:26;24.60;99.90
12632;DHT22;6381;45.748;12.106;2023-07-30T00:57:04;24.60;99.90
12632;DHT22;6381;45.748;12.106;2023-07-30T00:59:43;24.60;99.90
12632;DHT22;6381;45.748;12.106;2023-07-30T01:02:18;24.40;99.90
12632;DHT22;6381;45.748;12.106;2023-07-30T01:04:57;24.20;99.90
12632;DHT22;6381;45.748;12.106;2023-07-30T01:07:32;24.30;99.90
12632;DHT22;6381;45.748;12.106;2023-07-30T01:10:08;24.40;99.90
12632;DHT22;6381;45.748;12.106;2023-07-30T01:12:47;24.40;99.90
12632;DHT22;6381;45.748;12.106;2023-07-30T01:15:23;24.00;99.90
12632;DHT22;6381;45.748;12.106;2023-07-30T01:18:01;24.20;99.90
12632;DHT22;6381;45.748;12.106;2023-07-30T01:20:33;24.20;99.90
12632;DHT22;6381;45.748;12.106;2023-07-30T01:23:13;24.00;99.90
12632;DHT22;6381;45.748;12.106;2023-07-30T01:25:51;24.10;99.90
12632;DHT22;6381;45.748;12.106;2023-07-30T01:28:28;23.80;99.90
12632;DHT22;6381;45.748;12.106;2023-07-30T01:31:03;23.90;99.90
12632;DHT22;6381;45.748;12.106;2023-07-30T01:33:42;23.50;99.90
12632;DHT22;6381;45.748;12.106;2023-07-30T01:36:16;23.60;99.90
12632;DHT22;6381;45.748;12.106;2023-07-30T01:38:51;23.40;99.90
12632;DHT22;6381;45.748;12.106;2023-07-30T01:41:28;23.30;99.90
12632;DHT22;6381;45.748;12.106;2023-07-30T01:44:06;22.80;99.90
12632;DHT22;6381;45.748;12.106;2023-07-30T01:46:37;23.00;99.90
12632;DHT22;6381;45.748;12.106;2023-07-30T01:49:21;23.20;99.90
12632;DHT22;6381;45.748;12.106;2023-07-30T01:51:52;23.10;99.90
12632;DHT22;6381;45.748;12.106;2023-07-30T01:54:32;23.10;99.90
12632;DHT22;6381;45.748;12.106;2023-07-30T01:57:07;23.30;99.90
12632;DHT22;6381;45.748;12.106;2023-07-30T01:59:43;23.50;99.90
12632;DHT22;6381;45.748;12.106;2023-07-30T02:02:22;23.50;99.90
12632;DHT22;6381;45.748;12.106;2023-07-30T02:05:01;23.40;99.90
12632;DHT22;6381;45.748;12.106;2023-07-30T02:07:33;23.30;99.90
12632;DHT22;6381;45.748;12.106;2023-07-30T02:10:13;23.30;99.90
12632;DHT22;6381;45.748;12.106;2023-07-30T02:16:57;23.20;99.90
12632;DHT22;6381;45.748;12.106;2023-07-30T02:19:53;23.30;99.90
12632;DHT22;6381;45.748;12.106;2023-07-30T02:22:28;22.90;99.90
12632;DHT22;6381;45.748;12.106;2023-07-30T02:25:00;22.60;99.90
12632;DHT22;6381;45.748;12.106;2023-07-30T02:27:46;22.50;99.90
12632;DHT22;6381;45.748;12.106;2023-07-30T02:30:23;22.40;99.90
12632;DHT22;6381;45.748;12.106;2023-07-30T02:33:00;22.40;99.90
12632;DHT22;6381;45.748;12.106;2023-07-30T02:35:32;22.30;99.90
12632;DHT22;6381;45.748;12.106;2023-07-30T02:38:15;22.20;99.90
12632;DHT22;6381;45.748;12.106;2023-07-30T02:40:46;22.20;99.90
12632;DHT22;6381;45.748;12.106;2023-07-30T02:43:19;22.10;99.90
12632;DHT22;6381;45.748;12.106;2023-07-30T02:46:00;22.20;99.90
12632;DHT22;6381;45.748;12.106;2023-07-30T02:48:31;21.70;99.90
12632;DHT22;6381;45.748;12.106;2023-07-30T02:51:15;21.70;99.90
12632;DHT22;6381;45.748;12.106;2023-07-30T02:53:54;21.60;99.90
12632;DHT22;6381;45.748;12.106;2023-07-30T02:56:26;21.50;99.90
12632;DHT22;6381;45.748;12.106;2023-07-30T02:58:59;21.50;99.90
12632;DHT22;6381;45.748;12.106;2023-07-30T03:01:42;21.70;99.90
12632;DHT22;6381;45.748;12.106;2023-07-30T03:04:18;21.80;99.90
12632;DHT22;6381;45.748;12.106;2023-07-30T03:06:55;21.40;99.90
12632;DHT22;6381;45.748;12.106;2023-07-30T03:09:31;22.00;99.90
12632;DHT22;6381;45.748;12.106;2023-07-30T03:12:10;21.50;99.90
12632;DHT22;6381;45.748;12.106;2023-07-30T03:14:47;21.70;99.90
12632;DHT22;6381;45.748;12.106;2023-07-30T03:17:25;21.90;99.90
12632;DHT22;6381;45.748;12.106;2023-07-30T03:20:02;21.30;99.90
12632;DHT22;6381;45.748;12.106;2023-07-30T03:22:37;21.30;99.90
12632;DHT22;6381;45.748;12.106;2023-07-30T03:25:16;21.10;99.90
12632;DHT22;6381;45.748;12.106;2023-07-30T03:27:52;21.40;99.90
12632;DHT22;6381;45.748;12.106;2023-07-30T03:30:31;21.50;99.90
12632;DHT22;6381;45.748;12.106;2023-07-30T03:33:05;21.50;99.90
12632;DHT22;6381;45.748;12.106;2023-07-30T03:35:42;21.70;99.90
12632;DHT22;6381;45.748;12.106;2023-07-30T03:38:15;21.70;99.90
12632;DHT22;6381;45.748;12.106;2023-07-30T03:40:46;21.80;99.90
12632;DHT22;6381;45.748;12.106;2023-07-30T03:43:34;21.70;99.90
12632;DHT22;6381;45.748;12.106;2023-07-30T03:46:10;21.70;99.90
12632;DHT22;6381;45.748;12.106;2023-07-30T03:49:05;21.70;99.90
12632;DHT22;6381;45.748;12.106;2023-07-30T03:51:35;21.70;99.90
12632;DHT22;6381;45.748;12.106;2023-07-30T03:54:43;21.60;99.90
12632;DHT22;6381;45.748;12.106;2023-07-30T03:57:19;21.00;99.90
12632;DHT22;6381;45.748;12.106;2023-07-30T03:59:50;21.50;99.90
12632;DHT22;6381;45.748;12.106;2023-07-30T04:02:27;21.30;99.90
12632;DHT22;6381;45.748;12.106;2023-07-30T04:05:10;21.40;99.90
12632;DHT22;6381;45.748;12.106;2023-07-30T04:07:48;21.40;99.90
12632;DHT22;6381;45.748;12.106;2023-07-30T04:10:23;21.40;99.90
12632;DHT22;6381;45.748;12.106;2023-07-30T04:13:02;21.70;99.90
12632;DHT22;6381;45.748;12.106;2023-07-30T04:15:37;21.30;99.90
12632;DHT22;6381;45.748;12.106;2023-07-30T04:18:17;21.30;99.90
12632;DHT22;6381;45.748;12.106;2023-07-30T04:20:48;21.50;99.90
12632;DHT22;6381;45.748;12.106;2023-07-30T04:23:19;21.30;99.90
12632;DHT22;6381;45.748;12.106;2023-07-30T04:26:02;21.40;99.90
12632;DHT22;6381;45.748;12.106;2023-07-30T04:28:33;21.50;99.90
12632;DHT22;6381;45.748;12.106;2023-07-30T04:31:17;21.70;99.90
12632;DHT22;6381;45.748;12.106;2023-07-30T04:33:54;21.80;99.90
12632;DHT22;6381;45.748;12.106;2023-07-30T04:36:25;21.70;99.90
12632;DHT22;6381;45.748;12.106;2023-07-30T04:38:58;21.80;99.90
12632;DHT22;6381;45.748;12.106;2023-07-30T04:41:36;21.70;99.90
12632;DHT22;6381;45.748;12.106;2023-07-30T04:44:21;22.10;99.90
12632;DHT22;6381;45.748;12.106;2023-07-30T04:46:51;21.90;99.90
12632;DHT22;6381;45.748;12.106;2023-07-30T04:49:37;22.10;99.90
12632;DHT22;6381;45.748;12.106;2023-07-30T04:52:35;22.50;99.90
12632;DHT22;6381;45.748;12.106;2023-07-30T04:55:15;23.10;99.90
12632;DHT22;6381;45.748;12.106;2023-07-30T04:57:50;22.50;99.90
12632;DHT22;6381;45.748;12.106;2023-07-30T05:00:26;22.70;99.90
12632;DHT22;6381;45.748;12.106;2023-07-30T05:03:01;22.60;99.90
12632;DHT22;6381;45.748;12.106;2023-07-30T05:05:39;22.90;99.90
12632;DHT22;6381;45.748;12.106;2023-07-30T05:08:17;22.70;99.90
12632;DHT22;6381;45.748;12.106;2023-07-30T05:10:51;22.60;99.90
12632;DHT22;6381;45.748;12.106;2023-07-30T05:13:28;23.00;99.90
12632;DHT22;6381;45.748;12.106;2023-07-30T05:15:58;22.70;99.90
12632;DHT22;6381;45.748;12.106;2023-07-30T05:18:30;22.90;99.90
12632;DHT22;6381;45.748;12.106;2023-07-30T05:21:02;23.30;99.90
12632;DHT22;6381;45.748;12.106;2023-07-30T05:23:32;23.00;99.90
12632;DHT22;6381;45.748;12.106;2023-07-30T05:26:03;23.30;99.90
12632;DHT22;6381;45.748;12.106;2023-07-30T05:28:34;23.10;99.90
12632;DHT22;6381;45.748;12.106;2023-07-30T05:31:04;23.00;99.90
12632;DHT22;6381;45.748;12.106;2023-07-30T05:33:34;23.20;99.90
12632;DHT22;6381;45.748;12.106;2023-07-30T05:36:07;23.20;99.90
12632;DHT22;6381;45.748;12.106;2023-07-30T05:38:37;23.20;99.90
12632;DHT22;6381;45.748;12.106;2023-07-30T05:41:07;23.50;99.90
12632;DHT22;6381;45.748;12.106;2023-07-30T05:43:38;23.50;99.90
12632;DHT22;6381;45.748;12.106;2023-07-30T05:46:08;23.30;99.90
12632;DHT22;6381;45.748;12.106;2023-07-30T05:48:38;23.40;99.90
12632;DHT22;6381;45.748;12.106;2023-07-30T05:51:10;22.60;99.90
12632;DHT22;6381;45.748;12.106;2023-07-30T05:53:41;22.70;99.90
12632;DHT22;6381;45.748;12.106;2023-07-30T05:56:13;22.70;99.90
12632;DHT22;6381;45.748;12.106;2023-07-30T05:58:46;22.80;99.90
12632;DHT22;6381;45.748;12.106;2023-07-30T06:01:16;23.20;99.90
12632;DHT22;6381;45.748;12.106;2023-07-30T06:03:48;23.30;99.90
12632;DHT22;6381;45.748;12.106;2023-07-30T06:06:20;23.30;99.90
12632;DHT22;6381;45.748;12.106;2023-07-30T06:08:55;23.30;99.90
12632;DHT22;6381;45.748;12.106;2023-07-30T06:11:26;23.60;99.90
12632;DHT22;6381;45.748;12.106;2023-07-30T06:13:57;23.50;99.90
12632;DHT22;6381;45.748;12.106;2023-07-30T06:16:28;23.80;99.90
12632;DHT22;6381;45.748;12.106;2023-07-30T06:18:58;23.60;99.90
12632;DHT22;6381;45.748;12.106;2023-07-30T06:21:30;23.90;99.90
12632;DHT22;6381;45.748;12.106;2023-07-30T06:24:00;23.60;99.90
12632;DHT22;6381;45.748;12.106;2023-07-30T06:26:30;23.70;99.90
12632;DHT22;6381;45.748;12.106;2023-07-30T06:29:00;23.80;99.90
12632;DHT22;6381;45.748;12.106;2023-07-30T06:31:31;23.70;99.90
12632;DHT22;6381;45.748;12.106;2023-07-30T06:34:02;23.90;99.90
12632;DHT22;6381;45.748;12.106;2023-07-30T06:36:34;24.00;99.90
12632;DHT22;6381;45.748;12.106;2023-07-30T06:39:04;24.00;99.90
12632;DHT22;6381;45.748;12.106;2023-07-30T06:41:34;24.00;99.90
12632;DHT22;6381;45.748;12.106;2023-07-30T06:44:06;23.90;99.90
12632;DHT22;6381;45.748;12.106;2023-07-30T06:46:36;23.90;99.90
12632;DHT22;6381;45.748;12.106;2023-07-30T06:49:07;23.60;99.90
12632;DHT22;6381;45.748;12.106;2023-07-30T06:51:38;23.60;99.90
12632;DHT22;6381;45.748;12.106;2023-07-30T06:54:09;23.70;99.90
12632;DHT22;6381;45.748;12.106;2023-07-30T06:56:39;23.60;99.90
12632;DHT22;6381;45.748;12.106;2023-07-30T06:59:11;24.30;99.90
12632;DHT22;6381;45.748;12.106;2023-07-30T07:01:41;24.30;99.90
12632;DHT22;6381;45.748;12.106;2023-07-30T07:04:12;23.90;99.90
12632;DHT22;6381;45.748;12.106;2023-07-30T07:06:44;23.90;99.90
12632;DHT22;6381;45.748;12.106;2023-07-30T07:09:14;23.80;99.90
12632;DHT22;6381;45.748;12.106;2023-07-30T07:11:44;24.10;99.90
12632;DHT22;6381;45.748;12.106;2023-07-30T07:14:14;23.90;99.90
12632;DHT22;6381;45.748;12.106;2023-07-30T07:16:44;24.40;99.90
12632;DHT22;6381;45.748;12.106;2023-07-30T07:19:14;24.20;99.90
12632;DHT22;6381;45.748;12.106;2023-07-30T07:21:46;24.00;99.90
12632;DHT22;6381;45.748;12.106;2023-07-30T07:24:16;24.10;99.90
12632;DHT22;6381;45.748;12.106;2023-07-30T07:26:46;24.00;99.90
12632;DHT22;6381;45.748;12.106;2023-07-30T07:29:17;24.00;99.90
12632;DHT22;6381;45.748;12.106;2023-07-30T07:31:47;24.40;99.90
12632;DHT22;6381;45.748;12.106;2023-07-30T07:34:17;24.00;99.90
12632;DHT22;6381;45.748;12.106;2023-07-30T07:36:49;24.30;99.90
12632;DHT22;6381;45.748;12.106;2023-07-30T07:39:19;24.70;99.90
12632;DHT22;6381;45.748;12.106;2023-07-30T07:41:49;24.60;99.90
12632;DHT22;6381;45.748;12.106;2023-07-30T07:44:20;24.60;99.90
12632;DHT22;6381;45.748;12.106;2023-07-30T07:46:51;24.90;99.90
12632;DHT22;6381;45.748;12.106;2023-07-30T07:49:21;24.90;99.90
12632;DHT22;6381;45.748;12.106;2023-07-30T07:51:53;25.10;99.90
12632;DHT22;6381;45.748;12.106;2023-07-30T07:54:23;24.90;99.90
12632;DHT22;6381;45.748;12.106;2023-07-30T07:56:53;24.70;99.90
12632;DHT22;6381;45.748;12.106;2023-07-30T07:59:24;24.80;99.90
12632;DHT22;6381;45.748;12.106;2023-07-30T08:01:55;24.90;99.90
12632;DHT22;6381;45.748;12.106;2023-07-30T08:04:26;24.50;99.90
12632;DHT22;6381;45.748;12.106;2023-07-30T08:06:58;24.70;99.90
12632;DHT22;6381;45.748;12.106;2023-07-30T08:09:32;24.90;99.90
12632;DHT22;6381;45.748;12.106;2023-07-30T08:12:02;25.10;99.90
12632;DHT22;6381;45.748;12.106;2023-07-30T08:14:32;25.00;99.90
12632;DHT22;6381;45.748;12.106;2023-07-30T08:17:03;25.00;99.90
12632;DHT22;6381;45.748;12.106;2023-07-30T08:19:34;24.90;99.90
12632;DHT22;6381;45.748;12.106;2023-07-30T08:22:06;24.90;99.90
12632;DHT22;6381;45.748;12.106;2023-07-30T08:24:36;24.80;99.90
12632;DHT22;6381;45.748;12.106;2023-07-30T08:27:06;24.90;99.90
12632;DHT22;6381;45.748;12.106;2023-07-30T08:29:37;25.30;99.90
12632;DHT22;6381;45.748;12.106;2023-07-30T08:32:08;25.30;99.90
12632;DHT22;6381;45.748;12.106;2023-07-30T08:34:38;25.50;99.90
12632;DHT22;6381;45.748;12.106;2023-07-30T08:37:11;25.50;99.40
12632;DHT22;6381;45.748;12.106;2023-07-30T08:39:41;25.30;99.30
12632;DHT22;6381;45.748;12.106;2023-07-30T08:42:14;25.10;99.50
12632;DHT22;6381;45.748;12.106;2023-07-30T08:44:45;25.40;99.90
12632;DHT22;6381;45.748;12.106;2023-07-30T08:47:16;25.80;99.90
12632;DHT22;6381;45.748;12.106;2023-07-30T08:49:46;26.20;99.90
12632;DHT22;6381;45.748;12.106;2023-07-30T08:52:22;26.50;99.90
12632;DHT22;6381;45.748;12.106;2023-07-30T08:54:53;25.80;98.50
12632;DHT22;6381;45.748;12.106;2023-07-30T08:57:25;25.90;98.70
12632;DHT22;6381;45.748;12.106;2023-07-30T09:00:02;25.70;97.80
12632;DHT22;6381;45.748;12.106;2023-07-30T09:02:39;25.80;97.30
12632;DHT22;6381;45.748;12.106;2023-07-30T09:05:12;25.80;98.90
12632;DHT22;6381;45.748;12.106;2023-07-30T09:07:46;25.60;96.30
12632;DHT22;6381;45.748;12.106;2023-07-30T09:10:19;25.80;97.40
12632;DHT22;6381;45.748;12.106;2023-07-30T09:12:53;25.90;97.20
12632;DHT22;6381;45.748;12.106;2023-07-30T09:15:30;26.20;99.00
12632;DHT22;6381;45.748;12.106;2023-07-30T09:18:02;26.50;96.60
12632;DHT22;6381;45.748;12.106;2023-07-30T09:20:39;26.20;94.50
12632;DHT22;6381;45.748;12.106;2023-07-30T09:23:11;26.70;96.00
12632;DHT22;6381;45.748;12.106;2023-07-30T09:25:42;26.80;94.20
12632;DHT22;6381;45.748;12.106;2023-07-30T09:28:12;27.20;95.00
12632;DHT22;6381;45.748;12.106;2023-07-30T09:30:43;26.80;93.00
12632;DHT22;6381;45.748;12.106;2023-07-30T09:33:19;26.60;94.20
12632;DHT22;6381;45.748;12.106;2023-07-30T09:35:50;27.10;95.50
12632;DHT22;6381;45.748;12.106;2023-07-30T09:38:23;27.10;95.00
12632;DHT22;6381;45.748;12.106;2023-07-30T09:41:00;27.10;93.80
12632;DHT22;6381;45.748;12.106;2023-07-30T09:43:32;27.40;93.30
12632;DHT22;6381;45.748;12.106;2023-07-30T09:46:04;27.30;91.00
12632;DHT22;6381;45.748;12.106;2023-07-30T09:48:35;27.30;92.10
12632;DHT22;6381;45.748;12.106;2023-07-30T09:51:05;27.50;93.20
12632;DHT22;6381;45.748;12.106;2023-07-30T09:53:37;27.30;90.40
12632;DHT22;6381;45.748;12.106;2023-07-30T09:56:07;27.10;90.20
12632;DHT22;6381;45.748;12.106;2023-07-30T09:58:38;26.50;90.10
12632;DHT22;6381;45.748;12.106;2023-07-30T10:01:11;26.80;90.60
12632;DHT22;6381;45.748;12.106;2023-07-30T10:03:41;26.80;91.00
12632;DHT22;6381;45.748;12.106;2023-07-30T10:06:12;27.00;90.50
12632;DHT22;6381;45.748;12.106;2023-07-30T10:08:45;27.20;90.80
12632;DHT22;6381;45.748;12.106;2023-07-30T10:11:16;27.10;89.00
12632;DHT22;6381;45.748;12.106;2023-07-30T10:13:47;27.50;92.30
12632;DHT22;6381;45.748;12.106;2023-07-30T10:16:17;26.90;88.70
12632;DHT22;6381;45.748;12.106;2023-07-30T10:18:47;27.10;88.70
12632;DHT22;6381;45.748;12.106;2023-07-30T10:21:26;27.00;90.00
12632;DHT22;6381;45.748;12.106;2023-07-30T10:24:01;27.80;92.20
12632;DHT22;6381;45.748;12.106;2023-07-30T10:26:34;27.80;91.20
12632;DHT22;6381;45.748;12.106;2023-07-30T10:29:14;28.00;89.00
12632;DHT22;6381;45.748;12.106;2023-07-30T10:31:52;28.10;88.50
12632;DHT22;6381;45.748;12.106;2023-07-30T10:34:25;27.30;85.90
12632;DHT22;6381;45.748;12.106;2023-07-30T10:36:56;27.70;87.90
12632;DHT22;6381;45.748;12.106;2023-07-30T10:39:28;27.50;88.60
12632;DHT22;6381;45.748;12.106;2023-07-30T10:42:00;27.80;90.70
12632;DHT22;6381;45.748;12.106;2023-07-30T10:44:32;27.90;86.40
12632;DHT22;6381;45.748;12.106;2023-07-30T10:47:03;28.30;85.80
12632;DHT22;6381;45.748;12.106;2023-07-30T10:49:36;28.30;87.30
12632;DHT22;6381;45.748;12.106;2023-07-30T10:52:09;28.40;83.50
12632;DHT22;6381;45.748;12.106;2023-07-30T10:54:41;28.30;84.00
12632;DHT22;6381;45.748;12.106;2023-07-30T10:57:11;28.50;86.00
12632;DHT22;6381;45.748;12.106;2023-07-30T10:59:42;28.10;81.80
12632;DHT22;6381;45.748;12.106;2023-07-30T11:02:12;28.20;83.30
12632;DHT22;6381;45.748;12.106;2023-07-30T11:04:42;27.80;82.50
12632;DHT22;6381;45.748;12.106;2023-07-30T11:07:17;28.30;83.90
12632;DHT22;6381;45.748;12.106;2023-07-30T11:09:58;28.70;78.70
12632;DHT22;6381;45.748;12.106;2023-07-30T11:12:30;28.40;78.10
12632;DHT22;6381;45.748;12.106;2023-07-30T11:15:02;28.80;80.90
12632;DHT22;6381;45.748;12.106;2023-07-30T11:17:32;28.50;80.10
12632;DHT22;6381;45.748;12.106;2023-07-30T11:20:03;28.20;81.40
12632;DHT22;6381;45.748;12.106;2023-07-30T11:22:35;28.20;82.20
12632;DHT22;6381;45.748;12.106;2023-07-30T11:25:18;28.40;79.30
12632;DHT22;6381;45.748;12.106;2023-07-30T11:27:49;28.80;80.60
12632;DHT22;6381;45.748;12.106;2023-07-30T11:30:20;28.80;83.10
12632;DHT22;6381;45.748;12.106;2023-07-30T11:32:50;28.70;80.10
12632;DHT22;6381;45.748;12.106;2023-07-30T11:35:22;29.30;82.30
12632;DHT22;6381;45.748;12.106;2023-07-30T11:37:52;29.90;78.80
12632;DHT22;6381;45.748;12.106;2023-07-30T11:40:25;30.40;75.50
12632;DHT22;6381;45.748;12.106;2023-07-30T11:42:55;30.40;78.00
12632;DHT22;6381;45.748;12.106;2023-07-30T11:45:27;30.60;77.10
12632;DHT22;6381;45.748;12.106;2023-07-30T11:48:06;29.80;71.60
12632;DHT22;6381;45.748;12.106;2023-07-30T11:50:45;30.10;70.80
12632;DHT22;6381;45.748;12.106;2023-07-30T11:53:16;29.60;68.80
12632;DHT22;6381;45.748;12.106;2023-07-30T11:55:48;29.30;70.50
12632;DHT22;6381;45.748;12.106;2023-07-30T11:58:19;29.20;72.60
12632;DHT22;6381;45.748;12.106;2023-07-30T12:00:49;28.60;74.30
12632;DHT22;6381;45.748;12.106;2023-07-30T12:03:20;29.10;73.40
12632;DHT22;6381;45.748;12.106;2023-07-30T12:05:54;29.20;71.60
12632;DHT22;6381;45.748;12.106;2023-07-30T12:08:27;29.90;74.10
12632;DHT22;6381;45.748;12.106;2023-07-30T12:11:02;29.80;71.50
12632;DHT22;6381;45.748;12.106;2023-07-30T12:13:34;29.40;72.60
12632;DHT22;6381;45.748;12.106;2023-07-30T12:16:06;29.30;70.70
12632;DHT22;6381;45.748;12.106;2023-07-30T12:18:36;29.10;70.10
12632;DHT22;6381;45.748;12.106;2023-07-30T12:21:07;28.90;70.70
12632;DHT22;6381;45.748;12.106;2023-07-30T12:23:39;29.90;73.20
12632;DHT22;6381;45.748;12.106;2023-07-30T12:26:11;29.80;71.30
12632;DHT22;6381;45.748;12.106;2023-07-30T12:28:41;30.50;74.30
12632;DHT22;6381;45.748;12.106;2023-07-30T12:31:11;31.00;67.00
12632;DHT22;6381;45.748;12.106;2023-07-30T12:33:43;29.90;67.00
12632;DHT22;6381;45.748;12.106;2023-07-30T12:36:13;30.90;69.40
12632;DHT22;6381;45.748;12.106;2023-07-30T12:38:44;31.30;68.50
12632;DHT22;6381;45.748;12.106;2023-07-30T12:41:15;31.50;67.90
12632;DHT22;6381;45.748;12.106;2023-07-30T12:43:47;31.40;67.40
12632;DHT22;6381;45.748;12.106;2023-07-30T12:46:17;31.50;64.20
12632;DHT22;6381;45.748;12.106;2023-07-30T12:48:48;32.00;65.60
12632;DHT22;6381;45.748;12.106;2023-07-30T12:51:18;31.30;63.70
12632;DHT22;6381;45.748;12.106;2023-07-30T12:53:50;31.10;64.90
12632;DHT22;6381;45.748;12.106;2023-07-30T12:56:23;30.90;64.20
12632;DHT22;6381;45.748;12.106;2023-07-30T12:58:53;30.40;64.90
12632;DHT22;6381;45.748;12.106;2023-07-30T13:01:23;31.40;63.50
12632;DHT22;6381;45.748;12.106;2023-07-30T13:03:54;30.80;63.20
12632;DHT22;6381;45.748;12.106;2023-07-30T13:06:24;31.70;63.30
12632;DHT22;6381;45.748;12.106;2023-07-30T13:08:54;31.90;61.90
12632;DHT22;6381;45.748;12.106;2023-07-30T13:11:27;32.50;62.00
12632;DHT22;6381;45.748;12.106;2023-07-30T13:13:57;32.40;62.60
12632;DHT22;6381;45.748;12.106;2023-07-30T13:16:31;32.90;63.30
12632;DHT22;6381;45.748;12.106;2023-07-30T13:19:02;32.40;60.10
12632;DHT22;6381;45.748;12.106;2023-07-30T13:21:32;32.20;60.20
12632;DHT22;6381;45.748;12.106;2023-07-30T13:24:03;31.70;60.40
12632;DHT22;6381;45.748;12.106;2023-07-30T13:26:35;32.00;60.10
12632;DHT22;6381;45.748;12.106;2023-07-30T13:29:07;31.40;60.80
12632;DHT22;6381;45.748;12.106;2023-07-30T13:31:37;32.30;62.60
12632;DHT22;6381;45.748;12.106;2023-07-30T13:34:08;33.00;61.30
12632;DHT22;6381;45.748;12.106;2023-07-30T13:36:38;31.60;62.20
12632;DHT22;6381;45.748;12.106;2023-07-30T13:39:09;30.90;65.20
12632;DHT22;6381;45.748;12.106;2023-07-30T13:41:41;30.60;65.80
12632;DHT22;6381;45.748;12.106;2023-07-30T13:44:14;31.80;66.10
12632;DHT22;6381;45.748;12.106;2023-07-30T13:46:44;30.50;63.80
12632;DHT22;6381;45.748;12.106;2023-07-30T13:49:14;30.00;65.90
12632;DHT22;6381;45.748;12.106;2023-07-30T13:51:45;30.10;67.40
12632;DHT22;6381;45.748;12.106;2023-07-30T13:54:15;30.60;65.70
12632;DHT22;6381;45.748;12.106;2023-07-30T13:56:47;32.40;63.10
12632;DHT22;6381;45.748;12.106;2023-07-30T13:59:17;32.00;63.50
12632;DHT22;6381;45.748;12.106;2023-07-30T14:01:48;32.60;61.50
12632;DHT22;6381;45.748;12.106;2023-07-30T14:04:19;31.90;61.10
12632;DHT22;6381;45.748;12.106;2023-07-30T14:06:49;31.70;61.30
12632;DHT22;6381;45.748;12.106;2023-07-30T14:09:19;32.30;60.90
12632;DHT22;6381;45.748;12.106;2023-07-30T14:11:51;32.90;60.70
12632;DHT22;6381;45.748;12.106;2023-07-30T14:14:21;33.70;61.50
12632;DHT22;6381;45.748;12.106;2023-07-30T14:16:51;33.20;58.30
12632;DHT22;6381;45.748;12.106;2023-07-30T14:19:24;32.50;59.60
12632;DHT22;6381;45.748;12.106;2023-07-30T14:21:54;31.30;62.00
12632;DHT22;6381;45.748;12.106;2023-07-30T14:24:26;33.10;62.20
12632;DHT22;6381;45.748;12.106;2023-07-30T14:26:58;33.90;58.10
12632;DHT22;6381;45.748;12.106;2023-07-30T14:29:31;33.70;56.40
12632;DHT22;6381;45.748;12.106;2023-07-30T14:32:02;34.20;58.50
12632;DHT22;6381;45.748;12.106;2023-07-30T14:34:33;34.50;54.40
12632;DHT22;6381;45.748;12.106;2023-07-30T14:37:04;33.80;53.20
12632;DHT22;6381;45.748;12.106;2023-07-30T14:39:37;33.80;51.90
12632;DHT22;6381;45.748;12.106;2023-07-30T14:42:13;34.10;52.00
12632;DHT22;6381;45.748;12.106;2023-07-30T14:44:51;34.00;54.20
12632;DHT22;6381;45.748;12.106;2023-07-30T14:47:24;33.50;53.20
12632;DHT22;6381;45.748;12.106;2023-07-30T14:50:07;33.90;54.50
12632;DHT22;6381;45.748;12.106;2023-07-30T14:52:42;34.60;52.50
12632;DHT22;6381;45.748;12.106;2023-07-30T14:55:20;34.70;56.20
12632;DHT22;6381;45.748;12.106;2023-07-30T14:57:52;34.50;50.70
12632;DHT22;6381;45.748;12.106;2023-07-30T15:00:26;35.00;51.50
12632;DHT22;6381;45.748;12.106;2023-07-30T15:03:07;34.40;49.50
12632;DHT22;6381;45.748;12.106;2023-07-30T15:05:40;34.60;51.60
12632;DHT22;6381;45.748;12.106;2023-07-30T15:08:10;34.60;52.00
12632;DHT22;6381;45.748;12.106;2023-07-30T15:10:46;34.40;49.50
12632;DHT22;6381;45.748;12.106;2023-07-30T15:13:23;34.70;48.60
12632;DHT22;6381;45.748;12.106;2023-07-30T15:15:53;35.40;48.50
12632;DHT22;6381;45.748;12.106;2023-07-30T15:18:26;35.90;48.80
12632;DHT22;6381;45.748;12.106;2023-07-30T15:21:01;35.90;48.20
12632;DHT22;6381;45.748;12.106;2023-07-30T15:23:31;35.60;49.90
12632;DHT22;6381;45.748;12.106;2023-07-30T15:26:03;35.40;48.50
12632;DHT22;6381;45.748;12.106;2023-07-30T15:28:40;34.80;47.10
12632;DHT22;6381;45.748;12.106;2023-07-30T15:31:11;33.90;49.70
12632;DHT22;6381;45.748;12.106;2023-07-30T15:33:51;35.00;50.20
12632;DHT22;6381;45.748;12.106;2023-07-30T15:36:29;35.90;48.60
12632;DHT22;6381;45.748;12.106;2023-07-30T15:39:01;35.50;47.80
12632;DHT22;6381;45.748;12.106;2023-07-30T15:41:37;35.30;50.60
12632;DHT22;6381;45.748;12.106;2023-07-30T15:44:11;35.70;48.00
12632;DHT22;6381;45.748;12.106;2023-07-30T15:46:44;36.10;46.60
12632;DHT22;6381;45.748;12.106;2023-07-30T15:49:17;35.60;47.10
12632;DHT22;6381;45.748;12.106;2023-07-30T15:51:51;36.10;47.00
12632;DHT22;6381;45.748;12.106;2023-07-30T15:54:31;35.60;46.10
12632;DHT22;6381;45.748;12.106;2023-07-30T15:57:10;34.80;45.50
12632;DHT22;6381;45.748;12.106;2023-07-30T15:59:47;35.30;46.30
12632;DHT22;6381;45.748;12.106;2023-07-30T16:02:20;35.70;47.60
12632;DHT22;6381;45.748;12.106;2023-07-30T16:04:51;35.70;47.20
12632;DHT22;6381;45.748;12.106;2023-07-30T16:07:26;35.80;46.50
12632;DHT22;6381;45.748;12.106;2023-07-30T16:12:28;35.80;46.30
12632;DHT22;6381;45.748;12.106;2023-07-30T16:15:10;36.00;45.80
12632;DHT22;6381;45.748;12.106;2023-07-30T16:17:45;35.10;46.60